sensor_id;sensor_type;location;lat;lon;timestamp;P1;durP1;ratioP1;P2;durP2;ratioP2
42226;SDS011;27892;52.378;13.122;2023-04-24T00:00:41;3.10;;;2.70;;
42226;SDS011;27892;52.378;13.122;2023-04-24T00:03:10;3.10;;;2.90;;
42226;SDS011;27892;52.378;13.122;2023-04-24T00:05:36;4.60;;;4.20;;
42226;SDS011;27892;52.378;13.122;2023-04-24T00:08:01;4.33;;;3.93;;
42226;SDS011;27892;52.378;13.122;2023-04-24T00:10:27;5.17;;;4.67;;
42226;SDS011;27892;52.378;13.122;2023-04-24T00:12:53;6.20;;;5.33;;
42226;SDS011;27892;52.378;13.122;2023-04-24T00:15:18;5.30;;;4.80;;
42226;SDS011;27892;52.378;13.122;2023-04-24T00:17:44;5.20;;;4.70;;
42226;SDS011;27892;52.378;13.122;2023-04-24T00:20:11;4.50;;;4.10;;
42226;SDS011;27892;52.378;13.122;2023-04-24T00:22:36;3.77;;;3.47;;
42226;SDS011;27892;52.378;13.122;2023-04-24T00:25:02;5.00;;;4.60;;
42226;SDS011;27892;52.378;13.122;2023-04-24T00:27:28;5.73;;;5.23;;
42226;SDS011;27892;52.378;13.122;2023-04-24T00:29:54;6.57;;;5.67;;
42226;SDS011;27892;52.378;13.122;2023-04-24T00:32:19;4.60;;;4.20;;
42226;SDS011;27892;52.378;13.122;2023-04-24T00:34:45;6.10;;;5.50;;
42226;SDS011;27892;52.378;13.122;2023-04-24T00:37:11;21.73;;;16.27;;
42226;SDS011;27892;52.378;13.122;2023-04-24T00:39:37;15.27;;;11.93;;
42226;SDS011;27892;52.378;13.122;2023-04-24T00:42:02;11.37;;;8.57;;
42226;SDS011;27892;52.378;13.122;2023-04-24T00:44:30;7.63;;;6.20;;
42226;SDS011;27892;52.378;13.122;2023-04-24T00:46:57;6.43;;;5.43;;
42226;SDS011;27892;52.378;13.122;2023-04-24T00:49:24;5.37;;;4.60;;
42226;SDS011;27892;52.378;13.122;2023-04-24T00:51:50;3.93;;;3.63;;
42226;SDS011;27892;52.378;13.122;2023-04-24T00:54:16;3.33;;;3.10;;
42226;SDS011;27892;52.378;13.122;2023-04-24T00:56:42;3.23;;;3.03;;
42226;SDS011;27892;52.378;13.122;2023-04-24T00:59:09;2.50;;;2.40;;
42226;SDS011;27892;52.378;13.122;2023-04-24T01:01:36;3.17;;;2.90;;
42226;SDS011;27892;52.378;13.122;2023-04-24T01:04:02;3.00;;;2.80;;
42226;SDS011;27892;52.378;13.122;2023-04-24T01:06:28;3.63;;;3.40;;
42226;SDS011;27892;52.378;13.122;2023-04-24T01:08:56;4.70;;;4.20;;
42226;SDS011;27892;52.378;13.122;2023-04-24T01:11:24;5.00;;;4.60;;
42226;SDS011;27892;52.378;13.122;2023-04-24T01:13:50;4.60;;;4.20;;
42226;SDS011;27892;52.378;13.122;2023-04-24T01:16:16;3.57;;;3.27;;
42226;SDS011;27892;52.378;13.122;2023-04-24T01:18:44;4.40;;;4.00;;
42226;SDS011;27892;52.378;13.122;2023-04-24T01:21:11;5.13;;;4.73;;
42226;SDS011;27892;52.378;13.122;2023-04-24T01:23:40;4.93;;;4.43;;
42226;SDS011;27892;52.378;13.122;2023-04-24T01:26:06;4.83;;;4.40;;
42226;SDS011;27892;52.378;13.122;2023-04-24T01:28:31;3.87;;;3.57;;
42226;SDS011;27892;52.378;13.122;2023-04-24T01:30:57;3.63;;;3.33;;
42226;SDS011;27892;52.378;13.122;2023-04-24T01:33:24;3.80;;;3.50;;
42226;SDS011;27892;52.378;13.122;2023-04-24T01:35:50;4.00;;;3.60;;
42226;SDS011;27892;52.378;13.122;2023-04-24T01:38:16;5.53;;;4.83;;
42226;SDS011;27892;52.378;13.122;2023-04-24T01:40:42;4.63;;;4.23;;
42226;SDS011;27892;52.378;13.122;2023-04-24T01:43:08;4.20;;;3.80;;
42226;SDS011;27892;52.378;13.122;2023-04-24T01:45:33;3.00;;;2.80;;
42226;SDS011;27892;52.378;13.122;2023-04-24T01:48:00;3.10;;;2.70;;
42226;SDS011;27892;52.378;13.122;2023-04-24T01:50:25;2.73;;;2.53;;
42226;SDS011;27892;52.378;13.122;2023-04-24T01:52:51;2.80;;;2.60;;
42226;SDS011;27892;52.378;13.122;2023-04-24T01:55:17;3.03;;;2.83;;
42226;SDS011;27892;52.378;13.122;2023-04-24T01:57:42;2.83;;;2.63;;
42226;SDS011;27892;52.378;13.122;2023-04-24T02:00:08;2.40;;;2.20;;
42226;SDS011;27892;52.378;13.122;2023-04-24T02:02:36;2.80;;;2.60;;
42226;SDS011;27892;52.378;13.122;2023-04-24T02:05:05;2.40;;;2.30;;
42226;SDS011;27892;52.378;13.122;2023-04-24T02:07:31;2.90;;;2.70;;
42226;SDS011;27892;52.378;13.122;2023-04-24T02:09:57;3.10;;;2.80;;
42226;SDS011;27892;52.378;13.122;2023-04-24T02:12:23;3.50;;;3.20;;
42226;SDS011;27892;52.378;13.122;2023-04-24T02:14:49;3.50;;;3.30;;
42226;SDS011;27892;52.378;13.122;2023-04-24T02:17:15;3.37;;;3.10;;
42226;SDS011;27892;52.378;13.122;2023-04-24T02:19:41;3.00;;;2.80;;
42226;SDS011;27892;52.378;13.122;2023-04-24T02:22:07;2.67;;;2.50;;
42226;SDS011;27892;52.378;13.122;2023-04-24T02:24:33;3.00;;;2.80;;
42226;SDS011;27892;52.378;13.122;2023-04-24T02:26:58;2.77;;;2.67;;
42226;SDS011;27892;52.378;13.122;2023-04-24T02:29:25;2.90;;;2.70;;
42226;SDS011;27892;52.378;13.122;2023-04-24T02:31:51;3.77;;;3.40;;
42226;SDS011;27892;52.378;13.122;2023-04-24T02:34:16;3.10;;;2.90;;
42226;SDS011;27892;52.378;13.122;2023-04-24T02:36:42;5.13;;;4.63;;
42226;SDS011;27892;52.378;13.122;2023-04-24T02:39:08;5.40;;;4.90;;
42226;SDS011;27892;52.378;13.122;2023-04-24T02:41:34;5.40;;;4.90;;
42226;SDS011;27892;52.378;13.122;2023-04-24T02:43:59;5.63;;;4.80;;
42226;SDS011;27892;52.378;13.122;2023-04-24T02:46:25;6.30;;;5.70;;
42226;SDS011;27892;52.378;13.122;2023-04-24T02:48:51;6.50;;;5.80;;
42226;SDS011;27892;52.378;13.122;2023-04-24T02:51:16;5.97;;;5.37;;
42226;SDS011;27892;52.378;13.122;2023-04-24T02:53:42;4.70;;;4.30;;
42226;SDS011;27892;52.378;13.122;2023-04-24T02:56:08;3.80;;;3.50;;
42226;SDS011;27892;52.378;13.122;2023-04-24T02:58:33;3.50;;;3.20;;
42226;SDS011;27892;52.378;13.122;2023-04-24T03:01:00;3.13;;;2.93;;
42226;SDS011;27892;52.378;13.122;2023-04-24T03:03:26;5.10;;;4.70;;
42226;SDS011;27892;52.378;13.122;2023-04-24T03:05:51;3.97;;;3.67;;
42226;SDS011;27892;52.378;13.122;2023-04-24T03:08:17;3.83;;;3.53;;
42226;SDS011;27892;52.378;13.122;2023-04-24T03:10:43;3.30;;;3.10;;
42226;SDS011;27892;52.378;13.122;2023-04-24T03:13:09;3.37;;;3.07;;
42226;SDS011;27892;52.378;13.122;2023-04-24T03:15:34;3.50;;;3.20;;
42226;SDS011;27892;52.378;13.122;2023-04-24T03:18:00;3.07;;;2.87;;
42226;SDS011;27892;52.378;13.122;2023-04-24T03:20:26;4.03;;;3.73;;
42226;SDS011;27892;52.378;13.122;2023-04-24T03:22:52;4.40;;;4.00;;
42226;SDS011;27892;52.378;13.122;2023-04-24T03:25:17;4.60;;;4.20;;
42226;SDS011;27892;52.378;13.122;2023-04-24T03:27:43;3.97;;;3.67;;
42226;SDS011;27892;52.378;13.122;2023-04-24T03:30:09;3.10;;;2.90;;
42226;SDS011;27892;52.378;13.122;2023-04-24T03:32:35;3.30;;;3.10;;
42226;SDS011;27892;52.378;13.122;2023-04-24T03:35:01;4.50;;;4.10;;
42226;SDS011;27892;52.378;13.122;2023-04-24T03:37:26;4.40;;;4.00;;
42226;SDS011;27892;52.378;13.122;2023-04-24T03:39:52;5.00;;;4.60;;
42226;SDS011;27892;52.378;13.122;2023-04-24T03:42:17;4.80;;;4.40;;
42226;SDS011;27892;52.378;13.122;2023-04-24T03:44:43;6.20;;;5.60;;
42226;SDS011;27892;52.378;13.122;2023-04-24T03:47:09;5.47;;;5.00;;
42226;SDS011;27892;52.378;13.122;2023-04-24T03:49:35;5.07;;;4.57;;
42226;SDS011;27892;52.378;13.122;2023-04-24T03:52:00;4.63;;;4.23;;
42226;SDS011;27892;52.378;13.122;2023-04-24T03:54:26;3.80;;;3.50;;
42226;SDS011;27892;52.378;13.122;2023-04-24T03:56:52;4.57;;;4.17;;
42226;SDS011;27892;52.378;13.122;2023-04-24T03:59:18;5.13;;;4.73;;
42226;SDS011;27892;52.378;13.122;2023-04-24T04:01:44;4.00;;;3.70;;
42226;SDS011;27892;52.378;13.122;2023-04-24T04:04:10;3.80;;;3.40;;
42226;SDS011;27892;52.378;13.122;2023-04-24T04:06:36;4.07;;;3.67;;
42226;SDS011;27892;52.378;13.122;2023-04-24T04:09:02;3.40;;;3.20;;
42226;SDS011;27892;52.378;13.122;2023-04-24T04:11:28;3.00;;;2.80;;
42226;SDS011;27892;52.378;13.122;2023-04-24T04:13:55;2.80;;;2.60;;
42226;SDS011;27892;52.378;13.122;2023-04-24T04:16:21;2.47;;;2.37;;
42226;SDS011;27892;52.378;13.122;2023-04-24T04:18:47;2.90;;;2.70;;
42226;SDS011;27892;52.378;13.122;2023-04-24T04:21:13;2.40;;;2.20;;
42226;SDS011;27892;52.378;13.122;2023-04-24T04:23:39;2.20;;;2.10;;
42226;SDS011;27892;52.378;13.122;2023-04-24T04:26:05;2.13;;;2.03;;
42226;SDS011;27892;52.378;13.122;2023-04-24T04:28:31;2.27;;;2.17;;
42226;SDS011;27892;52.378;13.122;2023-04-24T04:30:57;3.67;;;3.37;;
42226;SDS011;27892;52.378;13.122;2023-04-24T04:33:23;3.13;;;2.93;;
42226;SDS011;27892;52.378;13.122;2023-04-24T04:35:49;3.50;;;3.30;;
42226;SDS011;27892;52.378;13.122;2023-04-24T04:38:17;3.27;;;3.07;;
42226;SDS011;27892;52.378;13.122;2023-04-24T04:40:43;3.30;;;3.10;;
42226;SDS011;27892;52.378;13.122;2023-04-24T04:43:10;2.90;;;2.70;;
42226;SDS011;27892;52.378;13.122;2023-04-24T04:45:36;3.27;;;3.00;;
42226;SDS011;27892;52.378;13.122;2023-04-24T04:48:03;4.93;;;4.53;;
42226;SDS011;27892;52.378;13.122;2023-04-24T04:50:29;4.30;;;3.90;;
42226;SDS011;27892;52.378;13.122;2023-04-24T04:52:55;3.40;;;3.20;;
42226;SDS011;27892;52.378;13.122;2023-04-24T04:55:21;3.10;;;2.90;;
42226;SDS011;27892;52.378;13.122;2023-04-24T04:57:47;3.47;;;3.10;;
42226;SDS011;27892;52.378;13.122;2023-04-24T05:00:13;2.90;;;2.70;;
42226;SDS011;27892;52.378;13.122;2023-04-24T05:02:39;3.00;;;2.80;;
42226;SDS011;27892;52.378;13.122;2023-04-24T05:05:05;2.83;;;2.63;;
42226;SDS011;27892;52.378;13.122;2023-04-24T05:07:33;3.33;;;2.50;;
42226;SDS011;27892;52.378;13.122;2023-04-24T05:09:58;2.93;;;2.73;;
42226;SDS011;27892;52.378;13.122;2023-04-24T05:12:24;3.70;;;3.40;;
42226;SDS011;27892;52.378;13.122;2023-04-24T05:14:50;3.37;;;3.10;;
42226;SDS011;27892;52.378;13.122;2023-04-24T05:17:15;3.60;;;3.30;;
42226;SDS011;27892;52.378;13.122;2023-04-24T05:19:41;3.27;;;3.07;;
42226;SDS011;27892;52.378;13.122;2023-04-24T05:22:07;4.03;;;3.50;;
42226;SDS011;27892;52.378;13.122;2023-04-24T05:24:34;4.10;;;3.70;;
42226;SDS011;27892;52.378;13.122;2023-04-24T05:27:01;3.10;;;2.90;;
42226;SDS011;27892;52.378;13.122;2023-04-24T05:29:30;2.63;;;2.43;;
42226;SDS011;27892;52.378;13.122;2023-04-24T05:31:57;3.60;;;3.30;;
42226;SDS011;27892;52.378;13.122;2023-04-24T05:34:23;3.97;;;3.17;;
42226;SDS011;27892;52.378;13.122;2023-04-24T05:36:48;3.13;;;2.90;;
42226;SDS011;27892;52.378;13.122;2023-04-24T05:39:15;3.67;;;3.00;;
42226;SDS011;27892;52.378;13.122;2023-04-24T05:41:41;2.83;;;2.53;;
42226;SDS011;27892;52.378;13.122;2023-04-24T05:44:07;2.43;;;2.23;;
42226;SDS011;27892;52.378;13.122;2023-04-24T05:46:33;2.50;;;2.30;;
42226;SDS011;27892;52.378;13.122;2023-04-24T05:48:58;2.00;;;1.90;;
42226;SDS011;27892;52.378;13.122;2023-04-24T05:51:24;1.73;;;1.63;;
42226;SDS011;27892;52.378;13.122;2023-04-24T05:53:50;1.70;;;1.60;;
42226;SDS011;27892;52.378;13.122;2023-04-24T05:56:22;1.80;;;1.70;;
42226;SDS011;27892;52.378;13.122;2023-04-24T05:58:48;1.37;;;1.33;;
42226;SDS011;27892;52.378;13.122;2023-04-24T06:01:14;1.58;;;1.50;;
42226;SDS011;27892;52.378;13.122;2023-04-24T06:03:40;1.65;;;1.50;;
42226;SDS011;27892;52.378;13.122;2023-04-24T06:06:07;1.33;;;1.30;;
42226;SDS011;27892;52.378;13.122;2023-04-24T06:08:33;1.40;;;1.30;;
42226;SDS011;27892;52.378;13.122;2023-04-24T06:11:00;1.50;;;1.40;;
42226;SDS011;27892;52.378;13.122;2023-04-24T06:13:26;1.25;;;1.25;;
42226;SDS011;27892;52.378;13.122;2023-04-24T06:15:52;1.00;;;1.00;;
42226;SDS011;27892;52.378;13.122;2023-04-24T06:18:18;1.02;;;1.02;;
42226;SDS011;27892;52.378;13.122;2023-04-24T06:20:44;1.00;;;1.00;;
42226;SDS011;27892;52.378;13.122;2023-04-24T06:23:10;0.90;;;0.90;;
42226;SDS011;27892;52.378;13.122;2023-04-24T06:25:36;1.10;;;1.00;;
42226;SDS011;27892;52.378;13.122;2023-04-24T06:28:02;0.90;;;0.90;;
42226;SDS011;27892;52.378;13.122;2023-04-24T06:30:28;0.82;;;0.82;;
42226;SDS011;27892;52.378;13.122;2023-04-24T06:32:54;3.60;;;3.30;;
42226;SDS011;27892;52.378;13.122;2023-04-24T06:35:19;8.18;;;6.63;;
42226;SDS011;27892;52.378;13.122;2023-04-24T06:37:45;2.70;;;2.50;;
42226;SDS011;27892;52.378;13.122;2023-04-24T06:40:11;2.17;;;1.33;;
42226;SDS011;27892;52.378;13.122;2023-04-24T06:42:37;0.80;;;0.80;;
42226;SDS011;27892;52.378;13.122;2023-04-24T06:45:03;1.27;;;0.80;;
42226;SDS011;27892;52.378;13.122;2023-04-24T06:47:30;0.70;;;0.70;;
42226;SDS011;27892;52.378;13.122;2023-04-24T06:49:55;1.30;;;1.20;;
42226;SDS011;27892;52.378;13.122;2023-04-24T06:52:24;1.60;;;0.90;;
42226;SDS011;27892;52.378;13.122;2023-04-24T06:54:50;0.80;;;0.80;;
42226;SDS011;27892;52.378;13.122;2023-04-24T06:57:15;0.77;;;0.77;;
42226;SDS011;27892;52.378;13.122;2023-04-24T06:59:41;0.90;;;0.90;;
42226;SDS011;27892;52.378;13.122;2023-04-24T07:02:07;0.80;;;0.80;;
42226;SDS011;27892;52.378;13.122;2023-04-24T07:04:33;0.80;;;0.80;;
42226;SDS011;27892;52.378;13.122;2023-04-24T07:06:58;0.70;;;0.70;;
42226;SDS011;27892;52.378;13.122;2023-04-24T07:09:25;0.85;;;0.85;;
42226;SDS011;27892;52.378;13.122;2023-04-24T07:11:51;1.13;;;0.98;;
42226;SDS011;27892;52.378;13.122;2023-04-24T07:14:17;0.93;;;0.85;;
42226;SDS011;27892;52.378;13.122;2023-04-24T07:16:43;1.00;;;1.00;;
42226;SDS011;27892;52.378;13.122;2023-04-24T07:19:10;0.77;;;0.77;;
42226;SDS011;27892;52.378;13.122;2023-04-24T07:21:36;0.90;;;0.90;;
42226;SDS011;27892;52.378;13.122;2023-04-24T07:24:02;0.88;;;0.88;;
42226;SDS011;27892;52.378;13.122;2023-04-24T07:26:30;0.77;;;0.77;;
42226;SDS011;27892;52.378;13.122;2023-04-24T07:28:56;0.80;;;0.70;;
42226;SDS011;27892;52.378;13.122;2023-04-24T07:31:22;0.98;;;0.98;;
42226;SDS011;27892;52.378;13.122;2023-04-24T07:33:48;1.05;;;1.05;;
42226;SDS011;27892;52.378;13.122;2023-04-24T07:36:13;1.15;;;1.15;;
42226;SDS011;27892;52.378;13.122;2023-04-24T07:38:47;1.85;;;0.80;;
42226;SDS011;27892;52.378;13.122;2023-04-24T07:41:13;1.25;;;0.80;;
42226;SDS011;27892;52.378;13.122;2023-04-24T07:43:38;1.05;;;1.05;;
42226;SDS011;27892;52.378;13.122;2023-04-24T07:46:05;0.75;;;0.75;;
42226;SDS011;27892;52.378;13.122;2023-04-24T07:48:31;0.80;;;0.80;;
42226;SDS011;27892;52.378;13.122;2023-04-24T07:50:57;0.95;;;0.95;;
42226;SDS011;27892;52.378;13.122;2023-04-24T07:53:22;0.80;;;0.80;;
42226;SDS011;27892;52.378;13.122;2023-04-24T07:55:48;0.70;;;0.70;;
42226;SDS011;27892;52.378;13.122;2023-04-24T07:58:14;0.50;;;0.50;;
42226;SDS011;27892;52.378;13.122;2023-04-24T08:00:43;0.70;;;0.70;;
42226;SDS011;27892;52.378;13.122;2023-04-24T08:03:08;0.80;;;0.80;;
42226;SDS011;27892;52.378;13.122;2023-04-24T08:05:34;1.77;;;0.73;;
42226;SDS011;27892;52.378;13.122;2023-04-24T08:08:00;1.20;;;0.50;;
42226;SDS011;27892;52.378;13.122;2023-04-24T08:10:25;0.70;;;0.70;;
42226;SDS011;27892;52.378;13.122;2023-04-24T08:12:51;0.70;;;0.70;;
42226;SDS011;27892;52.378;13.122;2023-04-24T08:15:17;0.80;;;0.80;;
42226;SDS011;27892;52.378;13.122;2023-04-24T08:17:43;1.02;;;0.85;;
42226;SDS011;27892;52.378;13.122;2023-04-24T08:20:11;0.55;;;0.55;;
42226;SDS011;27892;52.378;13.122;2023-04-24T08:22:40;0.70;;;0.70;;
42226;SDS011;27892;52.378;13.122;2023-04-24T08:25:06;0.90;;;0.80;;
42226;SDS011;27892;52.378;13.122;2023-04-24T08:27:33;0.90;;;0.90;;
42226;SDS011;27892;52.378;13.122;2023-04-24T08:29:59;0.90;;;0.90;;
42226;SDS011;27892;52.378;13.122;2023-04-24T08:32:25;0.88;;;0.88;;
42226;SDS011;27892;52.378;13.122;2023-04-24T08:34:54;1.05;;;0.95;;
42226;SDS011;27892;52.378;13.122;2023-04-24T08:37:21;1.10;;;1.10;;
42226;SDS011;27892;52.378;13.122;2023-04-24T08:39:47;0.90;;;0.90;;
42226;SDS011;27892;52.378;13.122;2023-04-24T08:42:14;0.95;;;0.95;;
42226;SDS011;27892;52.378;13.122;2023-04-24T08:44:40;1.30;;;1.20;;
42226;SDS011;27892;52.378;13.122;2023-04-24T08:47:07;1.63;;;1.00;;
42226;SDS011;27892;52.378;13.122;2023-04-24T08:49:33;0.90;;;0.90;;
42226;SDS011;27892;52.378;13.122;2023-04-24T08:52:01;1.27;;;0.90;;
42226;SDS011;27892;52.378;13.122;2023-04-24T08:54:28;1.48;;;1.17;;
42226;SDS011;27892;52.378;13.122;2023-04-24T08:56:54;0.82;;;0.82;;
42226;SDS011;27892;52.378;13.122;2023-04-24T08:59:29;0.90;;;0.90;;
42226;SDS011;27892;52.378;13.122;2023-04-24T09:01:55;1.10;;;1.10;;
42226;SDS011;27892;52.378;13.122;2023-04-24T09:04:22;1.00;;;1.00;;
42226;SDS011;27892;52.378;13.122;2023-04-24T09:06:50;1.20;;;1.10;;
42226;SDS011;27892;52.378;13.122;2023-04-24T09:09:17;0.98;;;0.98;;
42226;SDS011;27892;52.378;13.122;2023-04-24T09:11:45;1.10;;;1.10;;
42226;SDS011;27892;52.378;13.122;2023-04-24T09:14:12;0.80;;;0.80;;
42226;SDS011;27892;52.378;13.122;2023-04-24T09:16:39;1.10;;;1.10;;
42226;SDS011;27892;52.378;13.122;2023-04-24T09:19:05;0.90;;;0.90;;
42226;SDS011;27892;52.378;13.122;2023-04-24T09:21:34;1.02;;;1.02;;
42226;SDS011;27892;52.378;13.122;2023-04-24T09:24:01;1.08;;;1.02;;
42226;SDS011;27892;52.378;13.122;2023-04-24T09:26:29;1.55;;;1.23;;
42226;SDS011;27892;52.378;13.122;2023-04-24T09:28:59;1.00;;;0.93;;
42226;SDS011;27892;52.378;13.122;2023-04-24T09:31:26;1.00;;;1.00;;
42226;SDS011;27892;52.378;13.122;2023-04-24T09:33:58;1.00;;;1.00;;
42226;SDS011;27892;52.378;13.122;2023-04-24T09:39:02;0.90;;;0.90;;
42226;SDS011;27892;52.378;13.122;2023-04-24T09:41:43;1.02;;;0.90;;
42226;SDS011;27892;52.378;13.122;2023-04-24T09:44:16;1.02;;;1.02;;
42226;SDS011;27892;52.378;13.122;2023-04-24T09:46:42;0.90;;;0.90;;
42226;SDS011;27892;52.378;13.122;2023-04-24T09:49:14;0.93;;;0.90;;
42226;SDS011;27892;52.378;13.122;2023-04-24T09:51:41;0.90;;;0.90;;
42226;SDS011;27892;52.378;13.122;2023-04-24T09:54:15;0.70;;;0.70;;
42226;SDS011;27892;52.378;13.122;2023-04-24T09:56:46;0.60;;;0.60;;
42226;SDS011;27892;52.378;13.122;2023-04-24T09:59:14;0.80;;;0.80;;
42226;SDS011;27892;52.378;13.122;2023-04-24T10:01:40;1.38;;;1.00;;
42226;SDS011;27892;52.378;13.122;2023-04-24T10:04:16;0.80;;;0.80;;
42226;SDS011;27892;52.378;13.122;2023-04-24T10:06:43;0.95;;;0.80;;
42226;SDS011;27892;52.378;13.122;2023-04-24T10:09:09;0.88;;;0.88;;
42226;SDS011;27892;52.378;13.122;2023-04-24T10:11:37;0.95;;;0.90;;
42226;SDS011;27892;52.378;13.122;2023-04-24T10:14:06;1.73;;;0.82;;
42226;SDS011;27892;52.378;13.122;2023-04-24T10:16:33;1.00;;;1.00;;
42226;SDS011;27892;52.378;13.122;2023-04-24T10:19:01;1.10;;;1.08;;
42226;SDS011;27892;52.378;13.122;2023-04-24T10:21:28;1.00;;;1.00;;
42226;SDS011;27892;52.378;13.122;2023-04-24T10:23:53;0.82;;;0.82;;
42226;SDS011;27892;52.378;13.122;2023-04-24T10:26:20;0.70;;;0.70;;
42226;SDS011;27892;52.378;13.122;2023-04-24T10:28:47;0.95;;;0.90;;
42226;SDS011;27892;52.378;13.122;2023-04-24T10:31:13;1.27;;;0.95;;
42226;SDS011;27892;52.378;13.122;2023-04-24T10:33:43;0.90;;;0.90;;
42226;SDS011;27892;52.378;13.122;2023-04-24T10:36:10;1.17;;;1.00;;
42226;SDS011;27892;52.378;13.122;2023-04-24T10:38:39;0.98;;;0.98;;
42226;SDS011;27892;52.378;13.122;2023-04-24T10:41:09;0.80;;;0.80;;
42226;SDS011;27892;52.378;13.122;2023-04-24T10:43:41;0.90;;;0.90;;
42226;SDS011;27892;52.378;13.122;2023-04-24T10:46:08;1.08;;;1.08;;
42226;SDS011;27892;52.378;13.122;2023-04-24T10:48:35;0.80;;;0.80;;
42226;SDS011;27892;52.378;13.122;2023-04-24T10:51:10;0.90;;;0.90;;
42226;SDS011;27892;52.378;13.122;2023-04-24T10:53:38;0.70;;;0.70;;
42226;SDS011;27892;52.378;13.122;2023-04-24T10:56:04;0.95;;;0.95;;
42226;SDS011;27892;52.378;13.122;2023-04-24T10:58:51;0.77;;;0.77;;
42226;SDS011;27892;52.378;13.122;2023-04-24T11:01:25;1.33;;;1.23;;
42226;SDS011;27892;52.378;13.122;2023-04-24T11:03:54;1.58;;;1.20;;
42226;SDS011;27892;52.378;13.122;2023-04-24T11:06:33;0.90;;;0.90;;
42226;SDS011;27892;52.378;13.122;2023-04-24T11:09:04;0.90;;;0.90;;
42226;SDS011;27892;52.378;13.122;2023-04-24T11:11:32;1.00;;;1.00;;
42226;SDS011;27892;52.378;13.122;2023-04-24T11:16:44;0.90;;;0.90;;
42226;SDS011;27892;52.378;13.122;2023-04-24T11:21:41;1.05;;;1.00;;
42226;SDS011;27892;52.378;13.122;2023-04-24T11:26:58;1.00;;;0.90;;
42226;SDS011;27892;52.378;13.122;2023-04-24T11:29:39;1.35;;;0.90;;
42226;SDS011;27892;52.378;13.122;2023-04-24T11:34:56;1.65;;;0.95;;
42226;SDS011;27892;52.378;13.122;2023-04-24T11:37:26;1.40;;;0.82;;
42226;SDS011;27892;52.378;13.122;2023-04-24T11:39:54;0.90;;;0.90;;
42226;SDS011;27892;52.378;13.122;2023-04-24T11:42:23;1.08;;;0.80;;
42226;SDS011;27892;52.378;13.122;2023-04-24T11:44:53;1.20;;;1.08;;
42226;SDS011;27892;52.378;13.122;2023-04-24T11:47:29;0.90;;;0.90;;
42226;SDS011;27892;52.378;13.122;2023-04-24T11:49:56;1.02;;;0.90;;
42226;SDS011;27892;52.378;13.122;2023-04-24T11:52:23;1.00;;;1.00;;
42226;SDS011;27892;52.378;13.122;2023-04-24T11:54:49;1.20;;;1.10;;
42226;SDS011;27892;52.378;13.122;2023-04-24T11:57:15;2.08;;;0.95;;
42226;SDS011;27892;52.378;13.122;2023-04-24T11:59:41;0.80;;;0.80;;
42226;SDS011;27892;52.378;13.122;2023-04-24T12:02:07;0.80;;;0.80;;
42226;SDS011;27892;52.378;13.122;2023-04-24T12:04:39;0.85;;;0.85;;
42226;SDS011;27892;52.378;13.122;2023-04-24T12:07:06;0.95;;;0.80;;
42226;SDS011;27892;52.378;13.122;2023-04-24T12:12:29;0.63;;;0.63;;
42226;SDS011;27892;52.378;13.122;2023-04-24T12:14:56;0.70;;;0.70;;
42226;SDS011;27892;52.378;13.122;2023-04-24T12:17:29;1.00;;;0.65;;
42226;SDS011;27892;52.378;13.122;2023-04-24T12:19:57;1.20;;;1.10;;
42226;SDS011;27892;52.378;13.122;2023-04-24T12:22:25;0.80;;;0.80;;
42226;SDS011;27892;52.378;13.122;2023-04-24T12:27:30;1.00;;;1.00;;
42226;SDS011;27892;52.378;13.122;2023-04-24T12:29:58;0.77;;;0.77;;
42226;SDS011;27892;52.378;13.122;2023-04-24T12:32:24;0.80;;;0.80;;
42226;SDS011;27892;52.378;13.122;2023-04-24T12:34:51;0.90;;;0.90;;
42226;SDS011;27892;52.378;13.122;2023-04-24T12:37:17;1.45;;;0.90;;
42226;SDS011;27892;52.378;13.122;2023-04-24T12:42:36;3.45;;;1.83;;
42226;SDS011;27892;52.378;13.122;2023-04-24T12:45:07;5.80;;;5.00;;
42226;SDS011;27892;52.378;13.122;2023-04-24T12:47:33;1.63;;;1.52;;
42226;SDS011;27892;52.378;13.122;2023-04-24T12:50:00;0.93;;;0.93;;
42226;SDS011;27892;52.378;13.122;2023-04-24T12:52:26;3.13;;;0.85;;
42226;SDS011;27892;52.378;13.122;2023-04-24T12:54:53;1.70;;;0.85;;
42226;SDS011;27892;52.378;13.122;2023-04-24T12:57:21;0.90;;;0.90;;
42226;SDS011;27892;52.378;13.122;2023-04-24T12:59:53;0.80;;;0.80;;
42226;SDS011;27892;52.378;13.122;2023-04-24T13:02:20;2.15;;;1.00;;
42226;SDS011;27892;52.378;13.122;2023-04-24T13:04:47;0.80;;;0.80;;
42226;SDS011;27892;52.378;13.122;2023-04-24T13:07:13;1.23;;;0.90;;
42226;SDS011;27892;52.378;13.122;2023-04-24T13:09:39;2.20;;;0.90;;
42226;SDS011;27892;52.378;13.122;2023-04-24T13:12:06;0.93;;;0.70;;
42226;SDS011;27892;52.378;13.122;2023-04-24T13:14:32;1.50;;;0.90;;
42226;SDS011;27892;52.378;13.122;2023-04-24T13:16:58;1.58;;;1.00;;
42226;SDS011;27892;52.378;13.122;2023-04-24T13:19:25;0.90;;;0.90;;
42226;SDS011;27892;52.378;13.122;2023-04-24T13:21:51;0.82;;;0.82;;
42226;SDS011;27892;52.378;13.122;2023-04-24T13:24:17;0.75;;;0.65;;
42226;SDS011;27892;52.378;13.122;2023-04-24T13:26:43;0.90;;;0.90;;
42226;SDS011;27892;52.378;13.122;2023-04-24T13:29:09;0.70;;;0.70;;
42226;SDS011;27892;52.378;13.122;2023-04-24T13:31:35;0.73;;;0.73;;
42226;SDS011;27892;52.378;13.122;2023-04-24T13:34:01;0.90;;;0.90;;
42226;SDS011;27892;52.378;13.122;2023-04-24T13:36:27;0.80;;;0.80;;
42226;SDS011;27892;52.378;13.122;2023-04-24T13:38:53;1.15;;;1.08;;
42226;SDS011;27892;52.378;13.122;2023-04-24T13:41:19;3.42;;;1.55;;
42226;SDS011;27892;52.378;13.122;2023-04-24T13:43:45;1.10;;;1.10;;
42226;SDS011;27892;52.378;13.122;2023-04-24T13:46:10;1.40;;;1.30;;
42226;SDS011;27892;52.378;13.122;2023-04-24T13:48:36;1.05;;;0.90;;
42226;SDS011;27892;52.378;13.122;2023-04-24T13:51:02;1.25;;;0.80;;
42226;SDS011;27892;52.378;13.122;2023-04-24T13:53:28;1.27;;;0.90;;
42226;SDS011;27892;52.378;13.122;2023-04-24T13:55:53;1.05;;;0.98;;
42226;SDS011;27892;52.378;13.122;2023-04-24T13:58:19;0.98;;;0.98;;
42226;SDS011;27892;52.378;13.122;2023-04-24T14:00:45;0.77;;;0.77;;
42226;SDS011;27892;52.378;13.122;2023-04-24T14:03:11;0.70;;;0.70;;
42226;SDS011;27892;52.378;13.122;2023-04-24T14:05:37;0.70;;;0.70;;
42226;SDS011;27892;52.378;13.122;2023-04-24T14:08:02;0.80;;;0.80;;
42226;SDS011;27892;52.378;13.122;2023-04-24T14:10:28;0.77;;;0.77;;
42226;SDS011;27892;52.378;13.122;2023-04-24T14:12:54;0.70;;;0.70;;
42226;SDS011;27892;52.378;13.122;2023-04-24T14:15:19;1.65;;;0.77;;
42226;SDS011;27892;52.378;13.122;2023-04-24T14:17:45;1.00;;;0.90;;
42226;SDS011;27892;52.378;13.122;2023-04-24T14:20:11;1.98;;;1.10;;
42226;SDS011;27892;52.378;13.122;2023-04-24T14:22:37;1.10;;;1.00;;
42226;SDS011;27892;52.378;13.122;2023-04-24T14:25:04;0.95;;;0.95;;
42226;SDS011;27892;52.378;13.122;2023-04-24T14:27:31;0.60;;;0.60;;
42226;SDS011;27892;52.378;13.122;2023-04-24T14:29:57;0.73;;;0.73;;
42226;SDS011;27892;52.378;13.122;2023-04-24T14:32:23;0.77;;;0.77;;
42226;SDS011;27892;52.378;13.122;2023-04-24T14:34:48;2.20;;;0.82;;
42226;SDS011;27892;52.378;13.122;2023-04-24T14:37:14;0.88;;;0.88;;
42226;SDS011;27892;52.378;13.122;2023-04-24T14:39:40;1.15;;;1.05;;
42226;SDS011;27892;52.378;13.122;2023-04-24T14:42:05;1.10;;;1.10;;
42226;SDS011;27892;52.378;13.122;2023-04-24T14:45:37;1.00;;;1.00;;
42226;SDS011;27892;52.378;13.122;2023-04-24T14:48:05;0.90;;;0.90;;
42226;SDS011;27892;52.378;13.122;2023-04-24T14:50:30;1.30;;;1.30;;
42226;SDS011;27892;52.378;13.122;2023-04-24T14:52:56;1.20;;;1.20;;